Time;durP1;ratioP1;P1;durP2;ratioP2;P2;SDS_P1;SDS_P2;PMS_P1;PMS_P2;Temp;Humidity;BMP_temperature;BMP_pressure;BME280_temperature;BME280_humidity;BME280_pressure;Samples;Min_cycle;Max_cycle;Signal;HPM_P1;HPM_P2
2022/06/03 00:23:51;;;;;;;1.40;1.30;;;;;;;21.15;58.29;97621.22;6144975;23;20213;-88
2022/06/03 00:26:44;;;;;;;1.40;1.30;;;;;;;21.15;58.32;97621.22;6126931;23;20194;-89
2022/06/03 00:29:41;;;;;;;2.00;1.33;;;;;;;21.14;58.30;97632.25;6127520;23;20246;-90
2022/06/03 00:32:35;;;;;;;1.43;1.33;;;;;;;21.15;58.23;97626.34;6126661;23;20179;-89
2022/06/03 00:35:34;;;;;;;1.27;1.27;;;;;;;21.15;58.77;97623.78;6125276;23;20265;-89
2022/06/03 00:38:14;;;;;;;1.23;1.13;;;;;;;21.14;58.38;97619.47;6126735;23;20228;-90
2022/06/03 00:41:19;;;;;;;1.40;1.30;;;;;;;21.15;58.46;97617.78;6126796;23;20175;-88
2022/06/03 00:43:56;;;;;;;1.27;1.23;;;;;;;21.15;58.42;97620.34;6128602;23;20199;-91
2022/06/03 00:46:51;;;;;;;2.10;1.30;;;;;;;21.14;58.43;97616.91;6126616;23;20194;-90
2022/06/03 00:49:27;;;;;;;1.40;1.30;;;;;;;21.15;58.40;97613.56;6128052;23;20183;-88
2022/06/03 00:52:04;;;;;;;1.37;1.27;;;;;;;21.15;58.18;97612.69;6129305;23;20179;-89
2022/06/03 00:54:34;;;;;;;3.27;1.30;;;;;;;21.14;58.29;97605.84;6126535;23;20229;-89
2022/06/03 00:57:19;;;;;;;2.10;1.30;;;;;;;21.13;58.26;97601.53;6126852;23;20186;-87
2022/06/03 01:00:20;;;;;;;1.30;1.20;;;;;;;21.13;58.27;97597.31;6126407;23;20166;-90
2022/06/03 01:03:01;;;;;;;1.40;1.30;;;;;;;21.14;58.34;97598.19;6127781;23;20175;-88
2022/06/03 01:05:40;;;;;;;1.30;1.20;;;;;;;21.14;58.44;97587.97;6127680;23;20194;-90
2022/06/03 01:08:15;;;;;;;1.20;1.10;;;;;;;20.89;58.29;97557.28;6126723;23;20249;-89
2022/06/03 01:11:17;;;;;;;1.50;1.40;;;;;;;21.15;58.17;97592.25;6104190;23;20166;-88
2022/06/03 01:13:52;;;;;;;1.27;1.20;;;;;;;20.95;58.29;97572.84;6126413;23;20541;-89
2022/06/03 01:17:00;;;;;;;1.60;1.50;;;;;;;21.16;58.41;97586.28;6128297;23;20179;-88
2022/06/03 01:20:06;;;;;;;1.60;1.50;;;;;;;21.14;58.32;97578.56;6109672;23;20491;-89
2022/06/03 01:22:51;;;;;;;1.60;1.50;;;;;;;21.14;58.35;97582.84;6130729;23;20163;-88
2022/06/03 01:25:21;;;;;;;1.50;1.40;;;;;;;21.15;58.26;97587.13;6130882;23;20569;-88
2022/06/03 01:28:25;;;;;;;1.57;1.47;;;;;;;21.14;58.40;97590.50;6129716;23;20581;-88
2022/06/03 01:31:10;;;;;;;2.03;1.27;;;;;;;20.92;58.55;97572.69;6129712;23;20179;-90
2022/06/03 01:34:07;;;;;;;1.47;1.37;;;;;;;21.14;58.51;97586.25;6130388;23;20281;-88
2022/06/03 01:36:44;;;;;;;1.47;1.37;;;;;;;21.15;58.45;97590.56;6130193;23;20588;-90
2022/06/03 01:39:32;;;;;;;1.40;1.30;;;;;;;19.53;58.25;97306.88;6129244;23;20214;-90
2022/06/03 01:42:33;;;;;;;1.30;1.20;;;;;;;21.15;58.51;97603.34;6129121;23;20175;-89
2022/06/03 01:45:24;;;;;;;1.70;1.40;;;;;;;16.59;58.21;96822.41;6130148;23;20245;-87
2022/06/03 01:48:03;;;;;;;1.40;1.30;;;;;;;21.13;58.40;97602.41;6113562;23;20208;-86
2022/06/03 01:50:50;;;;;;;1.23;1.20;;;;;;;19.14;58.37;97267.28;6130761;23;20173;-90
2022/06/03 01:53:54;;;;;;;1.47;1.37;;;;;;;20.21;58.39;97446.91;6128557;23;20203;-91
2022/06/03 01:57:22;;;;;;;1.43;1.33;;;;;;;21.13;58.34;97604.09;6129127;23;20163;-90
2022/06/03 01:59:59;;;;;;;1.30;1.20;;;;;;;19.90;58.54;97396.56;6125235;23;20183;-90
2022/06/03 02:02:49;;;;;;;1.23;1.20;;;;;;;21.13;58.44;97594.75;6128590;23;20179;-88
2022/06/03 02:05:34;;;;;;;1.40;1.30;;;;;;;20.26;58.29;97442.84;6104452;23;20948;-87
2022/06/03 02:08:19;;;;;;;1.53;1.43;;;;;;;16.70;57.97;96909.94;6106591;23;20167;-86
2022/06/03 02:11:00;;;;;;;1.40;1.30;;;;;;;21.14;58.43;97601.56;6104968;23;20261;-88
2022/06/03 02:13:27;;;;;;;1.20;1.10;;;;;;;19.57;58.21;97344.41;6130690;23;20202;-88
2022/06/03 02:16:33;;;;;;;1.63;1.40;;;;;;;20.29;58.23;97497.41;6130543;23;20266;-87
2022/06/03 02:19:34;;;;;;;1.43;1.33;;;;;;;21.14;58.38;97600.72;6057495;23;20178;-89
2022/06/03 02:22:19;;;;;;;1.50;1.40;;;;;;;21.14;58.30;97600.72;6128586;23;20235;-92
2022/06/03 02:25:00;;;;;;;1.43;1.33;;;;;;;20.44;58.41;97477.50;6130213;23;20211;-89
2022/06/03 02:27:32;;;;;;;1.50;1.40;;;;;;;19.33;57.97;97290.06;6128802;23;20250;-86
2022/06/03 02:30:24;;;;;;;1.40;1.30;;;;;;;21.14;58.61;97606.69;6128878;23;20687;-88
2022/06/03 02:33:19;;;;;;;1.37;1.27;;;;;;;21.14;58.33;97603.28;6120842;23;20179;-90
2022/06/03 02:36:11;;;;;;;2.13;1.37;;;;;;;21.14;58.44;97605.84;6127885;23;20179;-89
2022/06/03 02:39:22;;;;;;;1.50;1.40;;;;;;;21.12;58.44;97603.25;6129946;23;20632;-88
2022/06/03 02:42:10;;;;;;;1.50;1.40;;;;;;;20.89;58.37;97559.84;6095173;23;20178;-87
2022/06/03 02:44:50;;;;;;;1.40;1.30;;;;;;;19.75;58.36;97379.03;6127793;23;20199;-89
2022/06/03 02:47:46;;;;;;;1.33;1.23;;;;;;;21.13;58.39;97611.75;6127236;23;20281;-88
2022/06/03 02:50:42;;;;;;;1.20;1.20;;;;;;;21.13;58.54;97607.53;6130327;23;20186;-87
2022/06/03 02:53:27;;;;;;;1.43;1.33;;;;;;;20.90;58.20;97567.53;6099305;23;20198;-87
2022/06/03 02:56:11;;;;;;;1.50;1.40;;;;;;;20.92;58.67;97585.47;6129571;23;20513;-87
2022/06/03 02:59:17;;;;;;;1.30;1.20;;;;;;;21.13;58.36;97607.53;6130356;23;20257;-90
2022/06/03 03:02:14;;;;;;;1.40;1.30;;;;;;;20.95;58.19;97577.94;6129065;23;20202;-88
2022/06/03 03:05:14;;;;;;;1.57;1.40;;;;;;;21.14;58.43;97598.19;6106025;23;20198;-91
2022/06/03 03:07:48;;;;;;;1.20;1.20;;;;;;;21.13;58.47;97592.19;6127871;23;20202;-90
2022/06/03 03:11:08;;;;;;;1.50;1.40;;;;;;;21.14;58.60;97586.25;6103224;23;20167;-90
2022/06/03 03:14:19;;;;;;;1.20;1.20;;;;;;;21.14;58.51;97590.50;6044302;23;20211;-90
2022/06/03 03:17:11;;;;;;;1.40;1.33;;;;;;;21.13;58.49;97594.75;6121946;23;20171;-89
2022/06/03 03:19:44;;;;;;;1.50;1.40;;;;;;;21.14;58.59;97591.34;6128100;23;20262;-91
2022/06/03 03:22:35;;;;;;;1.30;1.20;;;;;;;21.14;58.42;97590.50;6130400;23;20179;-86
2022/06/03 03:25:14;;;;;;;1.50;1.40;;;;;;;19.52;58.41;97311.13;6128271;23;20207;-90
2022/06/03 03:28:12;;;;;;;1.07;1.03;;;;;;;21.13;58.54;97592.19;6127842;23;20222;-88
2022/06/03 03:31:00;;;;;;;1.50;1.40;;;;;;;21.14;58.36;97582.84;6128322;23;20191;-88
2022/06/03 03:33:55;;;;;;;1.30;1.20;;;;;;;21.13;58.50;97592.19;6104170;23;20230;-88
2022/06/03 03:36:46;;;;;;;1.40;1.30;;;;;;;21.13;58.39;97597.31;6126571;23;20491;-87
2022/06/03 03:39:37;;;;;;;1.30;1.20;;;;;;;21.13;58.69;97607.53;6129357;23;20172;-87
2022/06/03 03:42:29;;;;;;;1.97;1.20;;;;;;;21.13;58.35;97604.09;6130475;23;20189;-90
2022/06/03 03:45:18;;;;;;;1.67;1.30;;;;;;;17.76;58.07;97040.09;6130186;23;20246;-89
2022/06/03 03:47:50;;;;;;;1.53;1.43;;;;;;;21.14;58.30;97610.97;6127661;23;20257;-87
2022/06/03 03:50:42;;;;;;;2.63;1.50;;;;;;;21.13;58.10;97610.06;6128485;23;20175;-91
2022/06/03 03:53:29;;;;;;;2.00;1.30;;;;;;;21.14;58.51;97614.34;6126152;23;20202;-87
2022/06/03 03:56:05;;;;;;;1.70;1.40;;;;;;;18.61;58.39;97183.06;6128299;23;20175;-90
2022/06/03 03:58:56;;;;;;;1.43;1.33;;;;;;;21.15;58.33;97620.34;6128232;23;20171;-88
2022/06/03 04:01:57;;;;;;;1.53;1.43;;;;;;;21.15;58.37;97626.34;6135625;23;20177;-91
2022/06/03 04:04:36;;;;;;;1.70;1.60;;;;;;;21.16;58.43;97622.06;6147277;23;20213;-91
2022/06/03 04:07:41;;;;;;;1.57;1.33;;;;;;;21.15;58.49;97620.34;6140564;23;20210;-91
2022/06/03 04:10:35;;;;;;;1.70;1.37;;;;;;;21.15;58.58;97621.22;6142138;23;20189;-89
2022/06/03 04:13:15;;;;;;;1.43;1.30;;;;;;;21.16;58.44;97620.41;6126888;23;20197;-91
2022/06/03 04:15:50;;;;;;;4.43;1.77;;;;;;;19.80;58.26;97395.38;6120591;23;20190;-89
2022/06/03 04:18:42;;;;;;;4.30;1.40;;;;;;;21.17;58.14;97611.06;6123418;23;20163;-90
2022/06/03 04:21:46;;;;;;;1.77;1.40;;;;;;;21.18;58.05;97617.88;6102152;23;20230;-89
2022/06/03 04:24:57;;;;;;;3.70;1.50;;;;;;;21.18;57.79;97612.78;6126176;23;20210;-89
2022/06/03 04:27:40;;;;;;;3.80;1.50;;;;;;;21.18;57.78;97611.09;6109873;23;20195;-88
2022/06/03 04:30:26;;;;;;;2.17;1.57;;;;;;;19.19;57.84;97264.06;6101609;23;20176;-90
2022/06/03 04:33:05;;;;;;;4.50;1.60;;;;;;;21.19;57.97;97604.28;6072326;23;20279;-89
2022/06/03 04:36:02;;;;;;;3.33;1.50;;;;;;;19.88;57.97;97377.78;6118756;23;20171;-89
2022/06/03 04:38:44;;;;;;;2.50;1.50;;;;;;;21.20;57.71;97598.38;6117155;23;20659;-89
2022/06/03 04:41:42;;;;;;;2.80;1.40;;;;;;;21.21;57.68;97605.22;6117165;23;20164;-89
2022/06/03 04:44:39;;;;;;;2.10;1.43;;;;;;;21.21;57.54;97608.66;6118488;23;20238;-90
2022/06/03 04:47:15;;;;;;;5.10;1.50;;;;;;;21.23;57.57;97613.81;6118898;23;20198;-89
2022/06/03 04:49:56;;;;;;;4.47;1.60;;;;;;;21.22;57.39;97617.16;6118879;23;20166;-90
2022/06/03 04:52:46;;;;;;;2.37;1.50;;;;;;;21.22;57.45;97605.25;6115414;23;20182;-89
2022/06/03 04:55:25;;;;;;;3.47;1.50;;;;;;;21.23;57.36;97644.47;6118454;23;20593;-89
2022/06/03 04:58:27;;;;;;;3.67;1.83;;;;;;;21.23;57.54;97624.03;6117148;23;20174;-89
2022/06/03 05:01:02;;;;;;;1.70;1.60;;;;;;;21.22;57.39;97622.28;6119872;23;20178;-89
2022/06/03 05:04:17;;;;;;;3.20;1.73;;;;;;;21.22;57.53;97625.72;6122957;23;20190;-89
2022/06/03 05:06:54;;;;;;;1.57;1.47;;;;;;;19.64;57.58;97354.00;6068011;23;20196;-89
2022/06/03 05:09:58;;;;;;;1.93;1.53;;;;;;;21.23;57.38;97619.75;6121421;23;20163;-89
2022/06/03 05:12:57;;;;;;;2.27;1.60;;;;;;;21.23;57.30;97619.75;6121867;23;20175;-89
2022/06/03 05:15:29;;;;;;;2.07;1.60;;;;;;;21.23;57.30;97624.88;6121664;23;20238;-89
2022/06/03 05:18:05;;;;;;;2.83;1.80;;;;;;;21.24;57.02;97625.75;6121815;23;20175;-89
2022/06/03 05:21:10;;;;;;;2.33;1.70;;;;;;;21.25;57.00;97632.59;6122185;23;20167;-89
2022/06/03 05:24:12;;;;;;;2.00;1.80;;;;;;;21.24;57.24;97625.75;6087871;23;20211;-89
2022/06/03 05:27:01;;;;;;;3.00;2.00;;;;;;;21.24;57.05;97624.06;6120107;23;20253;-89
2022/06/03 05:30:04;;;;;;;2.03;1.83;;;;;;;21.25;57.00;97617.25;6121767;23;20198;-88
2022/06/03 05:32:36;;;;;;;2.27;1.90;;;;;;;21.24;57.12;97603.63;6067880;23;20180;-90
2022/06/03 05:35:09;;;;;;;2.10;1.90;;;;;;;21.24;57.13;97601.06;6121090;23;20253;-89
2022/06/03 05:37:36;;;;;;;2.63;2.00;;;;;;;21.24;57.26;97601.06;6121738;23;20194;-89
2022/06/03 05:40:41;;;;;;;1.97;1.80;;;;;;;14.83;56.87;96519.16;6120569;23;20683;-89
2022/06/03 05:43:21;;;;;;;2.03;1.80;;;;;;;20.42;57.09;97465.50;6073208;23;20199;-89
2022/06/03 05:46:30;;;;;;;2.43;1.93;;;;;;;21.00;57.22;97574.75;6118512;23;20160;-89
2022/06/03 05:49:11;;;;;;;2.23;2.03;;;;;;;20.42;57.07;97471.47;6109682;23;20250;-89
2022/06/03 05:51:56;;;;;;;3.53;1.97;;;;;;;21.24;57.02;97606.19;6095386;23;20163;-89
2022/06/03 05:55:10;;;;;;;2.80;2.10;;;;;;;15.11;56.60;96650.13;6120073;23;20199;-89
2022/06/03 05:58:24;;;;;;;2.37;1.97;;;;;;;21.03;57.44;97600.38;6120664;23;20166;-89
2022/06/03 06:01:17;;;;;;;3.17;2.20;;;;;;;21.24;57.19;97613.84;6058732;23;20187;-90
2022/06/03 06:04:02;;;;;;;2.20;2.00;;;;;;;21.25;56.97;97617.25;6121011;23;20199;-89
2022/06/03 06:06:36;;;;;;;3.37;2.00;;;;;;;21.02;56.92;97567.13;6122842;23;20198;-90
2022/06/03 06:09:27;;;;;;;2.07;1.87;;;;;;;21.25;57.16;97597.69;6073896;23;20167;-89
2022/06/03 06:12:31;;;;;;;2.00;1.80;;;;;;;21.25;56.85;97597.69;6121201;23;20222;-88
2022/06/03 06:15:10;;;;;;;2.63;2.10;;;;;;;21.25;56.83;97594.25;6123951;23;20191;-89
2022/06/03 06:17:56;;;;;;;4.70;1.80;;;;;;;21.25;56.87;97600.25;6128799;23;20175;-89
2022/06/03 06:20:43;;;;;;;2.20;2.00;;;;;;;20.06;56.88;97392.81;6128190;23;20193;-90
2022/06/03 12:28:53;;;;;;;20.57;8.30;;;;;;;19.05;59.05;96929.13;6150553;23;20203;-92
2022/06/03 12:32:12;;;;;;;22.67;7.30;;;;;;;17.08;59.10;96605.06;6127359;23;20273;-92
2022/06/03 12:35:39;;;;;;;22.40;8.63;;;;;;;21.44;59.47;97323.84;6121440;23;20179;-91
2022/06/03 12:38:21;;;;;;;15.23;7.33;;;;;;;21.45;59.45;97325.59;6149698;23;20190;-88
2022/06/03 12:40:55;;;;;;;19.73;8.40;;;;;;;18.12;59.17;96791.38;6149388;23;20178;-92
2022/06/03 12:43:46;;;;;;;15.70;7.87;;;;;;;21.45;59.63;97317.06;6123726;23;20147;-93
2022/06/03 12:46:38;;;;;;;17.53;7.93;;;;;;;21.44;59.57;97316.19;6149912;23;20190;-88
2022/06/03 12:49:19;;;;;;;14.47;7.30;;;;;;;20.00;59.39;97095.03;6125608;23;20231;-92
2022/06/03 12:52:07;;;;;;;17.77;7.13;;;;;;;17.41;59.32;96601.06;6100743;23;20175;-92
2022/06/03 12:54:46;;;;;;;14.70;6.97;;;;;;;18.40;59.47;96841.41;6101502;23;20199;-91
2022/06/03 12:58:03;;;;;;;16.13;7.10;;;;;;;21.45;59.49;97300.03;6101986;23;20369;-92
2022/06/03 13:00:34;;;;;;;13.57;6.73;;;;;;;17.02;59.38;96535.53;6099883;23;20184;-91
2022/06/03 13:03:06;;;;;;;14.23;6.67;;;;;;;17.73;59.65;96656.28;6127183;23;20144;-91
2022/06/03 13:05:51;;;;;;;14.83;6.90;;;;;;;18.31;59.94;96803.81;6099747;23;20205;-86
2022/06/03 13:08:27;;;;;;;11.60;6.37;;;;;;;21.46;60.09;97280.44;6097919;23;20234;-89
2022/06/03 13:11:04;;;;;;;13.13;6.47;;;;;;;18.39;59.89;96771.88;6151088;23;20218;-89
2022/06/03 13:13:32;;;;;;;12.13;6.10;;;;;;;21.45;60.13;97284.69;6098977;23;20163;-91
2022/06/03 13:16:19;;;;;;;11.27;5.90;;;;;;;21.47;60.14;97292.41;6151762;23;20159;-90
2022/06/03 13:19:11;;;;;;;10.73;6.30;;;;;;;18.30;59.89;96766.50;6152692;23;20151;-91
2022/06/03 13:22:01;;;;;;;10.87;5.67;;;;;;;17.52;59.66;96624.28;6150783;23;20162;-90
2022/06/03 13:24:35;;;;;;;11.10;5.53;;;;;;;15.09;59.09;96206.47;6126547;23;20235;-91
2022/06/03 13:27:32;;;;;;;10.23;5.77;;;;;;;21.47;59.84;97285.59;6129944;23;20175;-90
2022/06/03 13:32:35;;;;;;;10.23;5.43;;;;;;;21.47;59.98;97277.91;6154240;23;20242;-92
2022/06/03 13:37:57;;;;;;;11.80;6.17;;;;;;;21.47;59.78;97275.34;6135804;23;20274;-94
2022/06/03 13:46:44;;;;;;;8.33;4.87;;;;;;;17.27;59.38;96535.44;6136148;23;20202;-91
2022/06/03 13:54:37;;;;;;;10.17;5.70;;;;;;;21.48;59.85;97238.75;6141652;23;20218;-90
2022/06/03 14:02:33;;;;;;;7.53;4.53;;;;;;;21.48;59.78;97222.53;6150442;23;20183;-90
2022/06/03 14:05:47;;;;;;;6.77;4.37;;;;;;;16.19;59.26;96322.34;6097892;23;20190;-90
2022/06/03 14:11:21;;;;;;;7.00;4.80;;;;;;;18.45;59.38;96713.56;6134655;23;20194;-91
2022/06/03 14:14:00;;;;;;;7.70;4.83;;;;;;;21.48;59.49;97215.75;6080646;23;20203;-94
2022/06/03 14:16:51;;;;;;;8.63;4.47;;;;;;;21.48;59.46;97219.97;6127936;23;20163;-93
2022/06/03 14:19:19;;;;;;;10.63;4.77;;;;;;;21.48;59.36;97214.88;6127576;23;20159;-92
2022/06/03 14:22:22;;;;;;;8.23;4.40;;;;;;;20.65;59.31;97094.31;6130927;23;20174;-93
2022/06/03 14:24:59;;;;;;;10.13;4.93;;;;;;;18.39;59.34;96731.19;6107941;23;20203;-93
2022/06/03 14:27:33;;;;;;;7.50;4.40;;;;;;;17.06;59.47;96492.50;6107223;23;20183;-93
2022/06/03 14:30:02;;;;;;;7.33;4.33;;;;;;;18.58;59.41;96755.44;6129760;23;20158;-90
2022/06/03 14:32:32;;;;;;;9.97;4.37;;;;;;;17.12;59.28;96495.22;6106204;23;20159;-92
2022/06/03 14:35:11;;;;;;;7.97;4.37;;;;;;;16.60;59.87;96389.56;6105230;23;20179;-94
2022/06/03 14:51:23;;;;;;;6.97;4.33;;;;;;;17.10;60.29;96496.84;6136175;23;20218;-93
2022/06/03 14:53:53;;;;;;;7.23;4.73;;;;;;;20.53;61.35;97030.19;6105370;23;20190;-92
2022/06/03 14:56:23;;;;;;;6.20;3.93;;;;;;;21.52;61.33;97201.31;6078450;23;20174;-90
2022/06/03 14:58:50;;;;;;;8.67;4.20;;;;;;;18.42;61.24;96661.72;6116241;23;20186;-90
2022/06/03 15:56:16;;;;;;;3.87;3.33;;;;;;;21.54;60.91;97215.91;6153529;23;20166;-93
2022/06/03 15:59:11;;;;;;;3.53;3.10;;;;;;;21.54;60.93;97238.91;6129223;23;20182;-89
2022/06/03 16:04:54;;;;;;;3.83;3.20;;;;;;;21.54;60.84;97227.81;6154073;23;20274;-88
2022/06/03 16:13:04;;;;;;;4.37;3.00;;;;;;;21.53;60.39;97232.03;6154267;23;20226;-95
2022/06/03 16:35:19;;;;;;;3.60;3.20;;;;;;;18.43;60.15;96712.63;6153085;23;20623;-90
2022/06/03 16:49:10;;;;;;;4.53;3.10;;;;;;;18.44;60.11;96723.69;6153916;23;20191;-95
2022/06/03 16:57:45;;;;;;;3.30;2.67;;;;;;;16.95;59.77;96518.34;6180477;23;20197;-91
2022/06/03 17:03:08;;;;;;;3.10;2.80;;;;;;;21.55;59.91;97296.00;6153422;23;20223;-94
2022/06/03 17:06:11;;;;;;;3.07;2.60;;;;;;;17.24;59.60;96581.91;6153641;23;20202;-94
2022/06/03 17:09:08;;;;;;;3.60;2.90;;;;;;;19.61;59.67;96971.53;6129468;23;20186;-92
2022/06/03 17:11:39;;;;;;;4.23;3.00;;;;;;;16.96;59.60;96555.63;6103040;23;20147;-89
2022/06/03 17:14:31;;;;;;;3.27;2.80;;;;;;;16.45;59.77;96486.31;6103535;23;20198;-91
2022/06/03 17:17:04;;;;;;;4.17;2.47;;;;;;;16.82;58.96;96570.41;6105185;23;20159;-91
2022/06/03 17:25:02;;;;;;;7.47;3.93;;;;;;;21.56;59.30;97351.47;6147782;23;20182;-91
2022/06/03 17:38:36;;;;;;;5.50;3.57;;;;;;;21.56;59.79;97464.81;6149291;23;20186;-90
